createdAt,value
2023-04-12T00:01:17.307Z,71.5
2023-04-12T00:07:11.563Z,70.9
2023-04-12T00:13:01.125Z,71
2023-04-12T00:18:54.558Z,70.2
2023-04-12T00:24:48.173Z,71.3
2023-04-12T00:30:40.941Z,71.6
2023-04-12T00:36:36.972Z,72.1
2023-04-12T00:42:30.230Z,73.7
2023-04-12T00:48:32.537Z,72.7
2023-04-12T00:54:25.784Z,73.8
2023-04-12T01:00:18.013Z,73.8
2023-04-12T01:06:10.809Z,75.5
2023-04-12T01:12:09.269Z,74.9
2023-04-12T01:18:07.122Z,75.8
2023-04-12T01:24:02.522Z,76
2023-04-12T01:30:08.373Z,76
2023-04-12T01:36:10.597Z,77.6
2023-04-12T01:42:06.154Z,77.3
2023-04-12T01:48:07.835Z,78.5
2023-04-12T02:00:29.435Z,82.2
2023-04-12T02:06:24.931Z,84.2
2023-04-12T02:12:17.541Z,86.4
2023-04-12T02:18:23.997Z,88
2023-04-12T02:24:29.266Z,90
2023-04-12T02:30:42.481Z,90.7
2023-04-12T02:36:43.201Z,91.4
2023-04-12T02:42:45.251Z,90.5
2023-04-12T02:48:46.704Z,92.3
2023-04-12T02:54:38.903Z,92.7
2023-04-12T03:00:37.173Z,93.6
2023-04-12T03:06:40.732Z,93.5
2023-04-12T03:12:42.713Z,94.1
2023-04-12T03:18:38.090Z,95
2023-04-12T03:24:32.625Z,94.8
2023-04-12T03:30:26.560Z,94.5
2023-04-12T07:26:20.226Z,100
2023-04-12T08:01:55.797Z,100
2023-04-12T09:51:37.656Z,100
2023-04-12T10:03:44.632Z,100
2023-04-12T10:09:53.449Z,100
2023-04-12T11:56:47.785Z,100
2023-04-12T12:40:38.190Z,95.9
2023-04-12T13:11:05.249Z,90.9
2023-04-12T13:16:58.076Z,92.5
2023-04-12T13:23:05.545Z,92.6
2023-04-12T13:29:03.479Z,86.5
2023-04-12T13:35:01.337Z,89.4
2023-04-12T13:40:56.565Z,88.5
2023-04-12T13:47:00.472Z,84.1
2023-04-12T13:54:29.423Z,82.2
2023-04-12T14:00:33.963Z,80.3
2023-04-12T14:06:52.317Z,82
2023-04-12T14:12:44.604Z,84.3
2023-04-12T14:18:37.408Z,82
2023-04-12T14:24:32.833Z,80.8
2023-04-12T14:30:31.656Z,79.7
2023-04-12T14:36:32.810Z,82.1
2023-04-12T14:42:29.788Z,79
2023-04-12T14:48:29.162Z,75.6
2023-04-12T14:54:23.224Z,76.9
2023-04-12T15:00:19.609Z,80.7
2023-04-12T15:06:27.331Z,82.9
2023-04-12T15:19:36.664Z,79.7
2023-04-12T15:38:22.994Z,76.9
2023-04-12T16:14:55.500Z,83.3
2023-04-12T16:20:46.443Z,86.9
2023-04-12T16:32:48.379Z,84.8
2023-04-12T16:44:39.107Z,84
2023-04-12T16:57:12.513Z,85.2
2023-04-12T17:03:06.185Z,86.6
2023-04-12T17:09:15.035Z,84.3
2023-04-12T17:15:11.339Z,84.5
2023-04-12T17:21:09.616Z,84
2023-04-12T17:27:03.177Z,84.2
2023-04-12T17:32:59.495Z,87.7
2023-04-12T17:38:52.298Z,89.5
2023-04-12T17:44:46.770Z,90.3
2023-04-12T17:50:39.984Z,90.8
2023-04-12T17:56:32.510Z,90.5
2023-04-12T18:02:28.086Z,90.5
2023-04-12T18:08:21.637Z,91
2023-04-12T18:14:42.016Z,91.1
2023-04-12T18:20:38.536Z,91.3
2023-04-12T18:26:33.047Z,91.6
2023-04-12T18:32:40.608Z,91.5
2023-04-12T18:38:33.862Z,91.4
2023-04-12T18:44:40.592Z,91.8
2023-04-12T18:50:32.172Z,91.3
2023-04-12T18:56:45.006Z,91.9
2023-04-12T19:02:36.779Z,92.3
2023-04-12T19:08:34.784Z,93
2023-04-12T19:26:57.562Z,94.7
2023-04-12T19:33:02.700Z,94
2023-04-12T19:38:56.259Z,94.6
2023-04-12T19:45:31.249Z,96.8
2023-04-12T19:51:31.956Z,95.8
2023-04-12T20:03:40.467Z,95.8
2023-04-12T20:09:31.614Z,94.6
2023-04-12T20:15:23.797Z,95.6
2023-04-12T20:27:52.698Z,97.9
2023-04-12T20:34:00.989Z,94.9
2023-04-12T20:40:35.219Z,90.3
2023-04-12T22:04:41.867Z,84.8
2023-04-12T22:16:51.364Z,85.2
2023-04-12T23:17:14.151Z,90.7
2023-04-12T23:30:02.826Z,89.5
2023-04-12T23:36:23.572Z,88.8
2023-04-12T23:48:58.256Z,88
2023-04-12T23:55:22.093Z,88.4
